Time;durP1;ratioP1;P1;durP2;ratioP2;P2;SDS_P1;SDS_P2;PMS_P1;PMS_P2;Temp;Humidity;BMP_temperature;BMP_pressure;BME280_temperature;BME280_humidity;BME280_pressure;Samples;Min_cycle;Max_cycle;Signal;HPM_P1;HPM_P2
2022/03/21 00:00:55;;;;;;;32.80;21.17;;;7.00;99.90;;;;;;5010477;28;20053;-59
2022/03/21 00:03:24;;;;;;;37.92;23.15;;;7.00;99.90;;;;;;5006732;28;20363;-60
2022/03/21 00:05:50;;;;;;;33.45;18.83;;;7.00;99.90;;;;;;4990509;28;20073;-59
2022/03/21 00:08:17;;;;;;;32.33;20.05;;;6.90;99.90;;;;;;4991547;28;20156;-60
2022/03/21 00:10:43;;;;;;;33.10;18.42;;;7.00;99.90;;;;;;4992838;28;20141;-58
2022/03/21 00:13:10;;;;;;;26.48;16.38;;;6.90;99.90;;;;;;4990794;28;20050;-60
2022/03/21 00:15:36;;;;;;;24.17;16.35;;;7.00;99.90;;;;;;5009468;28;20041;-60
2022/03/21 00:18:04;;;;;;;27.65;17.42;;;7.00;99.90;;;;;;5011674;28;20034;-60
2022/03/21 00:20:31;;;;;;;27.70;17.30;;;7.00;99.90;;;;;;5009945;28;20034;-59
2022/03/21 00:22:56;;;;;;;29.17;18.38;;;6.90;99.90;;;;;;5003492;28;20483;-60
2022/03/21 00:25:22;;;;;;;31.17;17.30;;;6.90;99.90;;;;;;5003294;28;20049;-59
2022/03/21 00:27:48;;;;;;;22.95;16.38;;;6.90;99.90;;;;;;5002808;28;20506;-59
2022/03/21 00:30:14;;;;;;;21.90;16.58;;;6.90;99.90;;;;;;5003680;28;20035;-59
2022/03/21 00:32:41;;;;;;;28.88;16.48;;;6.90;99.90;;;;;;5001069;28;20513;-60
2022/03/21 00:35:08;;;;;;;30.25;15.85;;;6.90;99.90;;;;;;4998365;28;20488;-59
2022/03/21 00:37:38;;;;;;;34.95;17.60;;;6.90;99.90;;;;;;5001342;28;20414;-59
2022/03/21 00:40:07;;;;;;;24.40;15.43;;;6.90;99.90;;;;;;5007859;28;20038;-60
2022/03/21 00:42:34;;;;;;;25.88;17.20;;;6.90;99.90;;;;;;5001696;28;20511;-59
2022/03/21 00:45:01;;;;;;;23.00;15.77;;;6.90;99.90;;;;;;5001211;28;20487;-59
2022/03/21 00:47:26;;;;;;;26.85;18.00;;;6.90;99.90;;;;;;5001917;28;20506;-59
2022/03/21 00:49:52;;;;;;;25.73;17.10;;;6.90;99.90;;;;;;5002615;28;20042;-59
2022/03/21 00:52:19;;;;;;;24.50;16.17;;;6.90;99.90;;;;;;4995508;28;20165;-60
2022/03/21 00:54:45;;;;;;;23.48;14.93;;;6.90;99.90;;;;;;4997913;28;20407;-59
2022/03/21 00:57:11;;;;;;;22.10;16.07;;;6.80;99.90;;;;;;5005595;28;20030;-59
2022/03/21 00:59:36;;;;;;;25.20;16.20;;;6.80;99.90;;;;;;4999709;28;20285;-59
2022/03/21 01:02:02;;;;;;;26.90;16.77;;;6.70;99.90;;;;;;5000942;28;20045;-60
2022/03/21 01:04:27;;;;;;;21.90;16.03;;;6.70;99.90;;;;;;5001244;28;20049;-59
2022/03/21 01:06:53;;;;;;;28.27;18.20;;;6.70;99.90;;;;;;5001970;28;20392;-59
2022/03/21 01:09:19;;;;;;;21.73;15.13;;;6.70;99.90;;;;;;4991702;28;20073;-60
2022/03/21 01:11:45;;;;;;;25.35;17.55;;;6.70;99.90;;;;;;4998379;28;20045;-59
2022/03/21 01:14:11;;;;;;;25.48;16.08;;;6.60;99.90;;;;;;5003435;28;20110;-59
2022/03/21 01:16:37;;;;;;;25.63;16.30;;;6.60;99.90;;;;;;4998566;28;20120;-58
2022/03/21 01:19:05;;;;;;;28.13;16.58;;;6.60;99.90;;;;;;5006272;28;20038;-59
2022/03/21 01:21:31;;;;;;;25.92;16.92;;;6.60;99.90;;;;;;4997815;28;20122;-59
2022/03/21 01:23:57;;;;;;;24.33;16.05;;;6.60;99.90;;;;;;5003991;28;20061;-59
2022/03/21 01:26:22;;;;;;;26.93;17.90;;;6.60;99.90;;;;;;5011545;28;20046;-59
2022/03/21 01:28:48;;;;;;;26.70;17.70;;;6.60;99.90;;;;;;4999788;28;20042;-59
2022/03/21 01:31:13;;;;;;;25.83;18.40;;;6.50;99.90;;;;;;5014371;28;20041;-59
2022/03/21 01:33:40;;;;;;;26.27;17.50;;;6.50;99.90;;;;;;5005502;28;20476;-60
2022/03/21 01:36:07;;;;;;;26.23;17.05;;;6.50;99.90;;;;;;5002145;28;20480;-60
2022/03/21 01:38:33;;;;;;;26.35;17.83;;;6.50;99.90;;;;;;5005675;28;20103;-59
2022/03/21 01:40:58;;;;;;;22.70;15.38;;;6.50;99.90;;;;;;5007221;28;20499;-59
2022/03/21 01:43:24;;;;;;;23.83;15.53;;;6.50;99.90;;;;;;5010766;28;20112;-59
2022/03/21 01:45:49;;;;;;;25.17;15.40;;;6.50;99.90;;;;;;5004640;28;20113;-59
2022/03/21 01:48:15;;;;;;;24.37;15.80;;;6.50;99.90;;;;;;5003539;28;20038;-60
2022/03/21 01:50:42;;;;;;;23.20;14.67;;;6.50;99.90;;;;;;5008143;28;20092;-59
2022/03/21 01:55:54;;;;;;;20.50;14.38;;;6.50;99.90;;;;;;4998843;28;20046;-59
2022/03/21 01:58:20;;;;;;;24.15;15.05;;;6.40;99.90;;;;;;5009084;28;20076;-59
2022/03/21 02:00:46;;;;;;;23.85;15.90;;;6.40;99.90;;;;;;5006312;28;20030;-58
2022/03/21 02:03:12;;;;;;;23.40;13.97;;;6.40;99.90;;;;;;5004176;28;20463;-59
2022/03/21 02:05:39;;;;;;;24.65;16.73;;;6.40;99.90;;;;;;4996169;28;20042;-59
2022/03/21 02:08:05;;;;;;;24.92;14.48;;;6.40;99.90;;;;;;4993750;28;20519;-60
2022/03/21 02:10:31;;;;;;;25.70;16.10;;;6.40;99.90;;;;;;5002429;28;20034;-59
2022/03/21 02:12:57;;;;;;;24.80;16.43;;;6.40;99.90;;;;;;4995119;28;20038;-59
2022/03/21 02:15:23;;;;;;;;;;;6.40;99.90;;;;;;4995280;28;20096;-59
2022/03/21 02:17:55;;;;;;;27.90;17.73;;;6.50;99.90;;;;;;4999332;28;19921;-59
2022/03/21 02:20:22;;;;;;;28.33;16.83;;;6.40;99.90;;;;;;5011752;28;20412;-59
2022/03/21 02:23:16;;;;;;;24.25;17.60;;;6.50;99.90;;;;;;5003488;28;20038;-59
2022/03/21 02:25:42;;;;;;;28.05;16.95;;;6.50;99.90;;;;;;5004340;28;20096;-59
2022/03/21 02:28:11;;;;;;;30.13;18.42;;;6.50;99.90;;;;;;5003768;28;20056;-59
2022/03/21 02:30:39;;;;;;;28.38;16.77;;;6.50;99.90;;;;;;5007461;28;20052;-58
2022/03/21 02:33:06;;;;;;;26.35;16.63;;;6.50;99.90;;;;;;5005928;28;20035;-59
2022/03/21 02:35:33;;;;;;;28.85;17.52;;;6.50;99.90;;;;;;5006852;28;20069;-58
2022/03/21 02:38:00;;;;;;;24.40;15.93;;;6.40;99.90;;;;;;5011751;28;20088;-60
2022/03/21 02:40:26;;;;;;;26.00;15.82;;;6.40;99.90;;;;;;5010842;28;20110;-58
2022/03/21 02:42:52;;;;;;;24.92;15.90;;;6.40;99.90;;;;;;5007607;28;20435;-59
2022/03/21 02:45:18;;;;;;;28.02;15.82;;;6.40;99.90;;;;;;4998210;28;20052;-60
2022/03/21 02:47:43;;;;;;;26.50;16.50;;;6.30;99.90;;;;;;4994451;28;20508;-60
2022/03/21 02:50:15;;;;;;;23.53;15.33;;;6.30;99.90;;;;;;5006185;28;20357;-59
2022/03/21 02:52:42;;;;;;;25.92;15.25;;;6.30;99.90;;;;;;4997611;28;20308;-59
2022/03/21 02:55:08;;;;;;;23.05;14.98;;;6.30;99.90;;;;;;5005097;28;20038;-59
2022/03/21 02:57:34;;;;;;;23.95;15.05;;;6.30;99.90;;;;;;5001333;28;20092;-59
2022/03/21 03:00:00;;;;;;;20.47;14.87;;;6.30;99.90;;;;;;4994863;28;20084;-59
2022/03/21 03:02:26;;;;;;;24.58;14.90;;;6.20;99.90;;;;;;4997402;28;20034;-59
2022/03/21 03:04:52;;;;;;;23.17;14.85;;;6.20;99.90;;;;;;4993831;28;20492;-59
2022/03/21 03:07:17;;;;;;;27.50;14.30;;;6.20;99.90;;;;;;5008680;28;20034;-59
2022/03/21 03:09:43;;;;;;;23.97;14.77;;;6.30;99.90;;;;;;5008849;28;20034;-58
2022/03/21 03:12:09;;;;;;;25.17;13.97;;;6.20;99.90;;;;;;4996330;28;20092;-59
2022/03/21 03:14:35;;;;;;;25.58;15.55;;;6.30;99.90;;;;;;4993411;28;20042;-59
2022/03/21 03:17:01;;;;;;;27.42;16.58;;;6.30;99.90;;;;;;4993189;28;20093;-59
2022/03/21 03:19:27;;;;;;;29.10;14.80;;;6.30;99.90;;;;;;4997994;28;20209;-59
2022/03/21 03:21:54;;;;;;;27.33;14.93;;;6.30;99.90;;;;;;4998795;28;20133;-58
2022/03/21 03:24:21;;;;;;;23.27;14.88;;;6.30;99.90;;;;;;5007436;28;20042;-59
2022/03/21 03:26:48;;;;;;;23.52;15.32;;;6.30;99.90;;;;;;5009280;28;20522;-59
2022/03/21 03:29:13;;;;;;;20.90;14.95;;;6.20;99.90;;;;;;5010497;28;20078;-59
2022/03/21 03:31:39;;;;;;;28.42;16.63;;;6.20;99.90;;;;;;5008140;28;20084;-59
2022/03/21 03:34:05;;;;;;;26.17;15.60;;;6.20;99.90;;;;;;4992607;28;20103;-59
2022/03/21 03:36:31;;;;;;;23.87;15.70;;;6.20;99.90;;;;;;5001754;28;20282;-60
2022/03/21 03:38:56;;;;;;;23.77;15.43;;;6.20;99.90;;;;;;4991868;28;20292;-59
2022/03/21 03:41:22;;;;;;;25.90;14.80;;;6.20;99.90;;;;;;4993629;28;20039;-59
2022/03/21 03:43:48;;;;;;;29.60;15.97;;;6.10;99.90;;;;;;5005961;28;20048;-59
2022/03/21 03:46:16;;;;;;;15.40;10.85;;;6.10;99.90;;;;;;5009953;28;20041;-59
2022/03/21 03:48:42;;;;;;;21.17;12.45;;;6.10;99.90;;;;;;5010633;28;20053;-59
2022/03/21 03:51:07;;;;;;;25.52;15.48;;;6.00;99.90;;;;;;5008638;28;20052;-59
2022/03/21 03:53:33;;;;;;;21.63;14.23;;;6.00;99.90;;;;;;4998445;28;20539;-59
2022/03/21 03:55:59;;;;;;;25.13;14.93;;;5.90;99.90;;;;;;4997851;28;20076;-59
2022/03/21 03:58:25;;;;;;;14.43;9.63;;;5.90;99.90;;;;;;5007909;28;20030;-59
2022/03/21 04:00:51;;;;;;;14.70;11.60;;;5.80;99.90;;;;;;4992939;28;20578;-59
2022/03/21 04:06:02;;;;;;;16.92;10.27;;;5.50;99.90;;;;;;4992585;28;20053;-59
2022/03/21 04:08:28;;;;;;;16.73;11.38;;;5.40;99.90;;;;;;5000726;28;20045;-59
2022/03/21 04:10:54;;;;;;;19.70;10.03;;;5.30;99.90;;;;;;5004927;28;20045;-60
2022/03/21 04:13:19;;;;;;;19.83;12.40;;;5.20;99.90;;;;;;5011276;28;20766;-59
2022/03/21 04:15:45;;;;;;;15.83;11.07;;;5.20;99.90;;;;;;5003793;28;20038;-59
2022/03/21 04:18:10;;;;;;;19.05;10.93;;;5.10;99.90;;;;;;4992603;28;20031;-59
2022/03/21 04:20:37;;;;;;;19.60;11.30;;;5.10;99.90;;;;;;4998622;28;20040;-59
2022/03/21 04:23:04;;;;;;;19.45;11.18;;;5.00;99.90;;;;;;5004985;28;20423;-59
2022/03/21 04:25:30;;;;;;;15.60;10.40;;;4.90;99.90;;;;;;4997101;28;20448;-59
2022/03/21 04:27:55;;;;;;;12.87;10.30;;;4.80;99.90;;;;;;5010600;28;20207;-60
2022/03/21 04:30:21;;;;;;;17.23;10.83;;;4.80;99.90;;;;;;5009988;28;20042;-59
2022/03/21 04:32:47;;;;;;;13.25;10.23;;;4.70;99.90;;;;;;4992566;28;20034;-59
2022/03/21 04:35:13;;;;;;;13.98;11.20;;;4.60;99.90;;;;;;4996587;28;20513;-59
2022/03/21 04:37:39;;;;;;;20.20;12.80;;;4.60;99.90;;;;;;5005371;28;20030;-59
2022/03/21 04:40:07;;;;;;;20.92;12.57;;;4.60;99.90;;;;;;4991885;28;20174;-59
2022/03/21 04:42:33;;;;;;;22.95;14.95;;;4.60;99.90;;;;;;5007174;28;20175;-59
2022/03/21 04:44:59;;;;;;;22.23;14.20;;;4.70;99.90;;;;;;4996389;28;20045;-58
2022/03/21 04:47:24;;;;;;;18.67;13.07;;;4.60;99.90;;;;;;5003134;28;20089;-59
2022/03/21 04:49:50;;;;;;;14.10;10.43;;;4.60;99.90;;;;;;4996052;28;20041;-59
2022/03/21 04:52:16;;;;;;;18.40;12.07;;;4.60;99.90;;;;;;5001432;28;20117;-60
2022/03/21 04:54:42;;;;;;;15.30;11.30;;;4.50;99.90;;;;;;4999060;28;20071;-59
2022/03/21 04:57:10;;;;;;;15.20;9.82;;;4.40;99.90;;;;;;4996488;28;20030;-59
2022/03/21 04:59:36;;;;;;;15.00;10.23;;;4.30;99.90;;;;;;5000753;28;20101;-59
2022/03/21 05:02:02;;;;;;;15.75;11.50;;;4.30;99.90;;;;;;4991607;28;20038;-59
2022/03/21 05:04:28;;;;;;;16.80;10.95;;;4.20;99.90;;;;;;5005665;28;20052;-59
2022/03/21 05:06:54;;;;;;;17.23;12.67;;;4.20;99.90;;;;;;4990660;28;20129;-59
2022/03/21 05:09:20;;;;;;;17.25;12.38;;;4.20;99.90;;;;;;4999931;28;20129;-58
2022/03/21 05:11:45;;;;;;;15.85;11.70;;;4.20;99.90;;;;;;5010444;28;20048;-59
2022/03/21 05:14:11;;;;;;;17.23;11.53;;;4.20;99.90;;;;;;5000966;28;20038;-58
2022/03/21 05:16:38;;;;;;;18.40;12.13;;;4.20;99.90;;;;;;4991726;28;20038;-60
2022/03/21 05:19:04;;;;;;;15.02;10.65;;;4.10;99.90;;;;;;4996995;28;20049;-59
2022/03/21 05:21:30;;;;;;;17.73;10.57;;;4.10;99.90;;;;;;4990818;28;20451;-60
2022/03/21 05:32:08;;;;;;;15.45;10.52;;;3.80;99.90;;;;;;4998022;28;20046;-60
2022/03/21 05:37:18;;;;;;;15.43;11.15;;;3.60;99.90;;;;;;5000688;28;20046;-59
2022/03/21 05:42:28;;;;;;;16.20;10.82;;;3.50;99.90;;;;;;5001956;28;20074;-58
2022/03/21 05:44:53;;;;;;;13.47;10.57;;;3.40;99.90;;;;;;4998638;28;20131;-59
2022/03/21 05:47:19;;;;;;;15.00;11.33;;;3.40;99.90;;;;;;4996522;28;20050;-59
2022/03/21 05:49:45;;;;;;;14.93;10.93;;;3.40;99.90;;;;;;4991243;28;20487;-59
2022/03/21 05:52:10;;;;;;;22.30;13.33;;;3.40;99.90;;;;;;5003405;28;20035;-59
2022/03/21 05:54:36;;;;;;;23.77;14.43;;;3.40;99.90;;;;;;4993215;28;20042;-59
2022/03/21 05:57:02;;;;;;;18.73;11.33;;;3.50;99.90;;;;;;5008196;28;20038;-59
2022/03/21 06:02:16;;;;;;;18.77;12.93;;;3.30;99.90;;;;;;4991978;28;20043;-60
2022/03/21 06:04:42;;;;;;;22.90;13.55;;;3.30;99.90;;;;;;5006722;28;20407;-59
2022/03/21 06:07:09;;;;;;;28.67;14.45;;;3.30;99.90;;;;;;5005855;28;20189;-59
2022/03/21 06:09:35;;;;;;;22.80;13.60;;;3.30;99.90;;;;;;5006341;28;20042;-60
2022/03/21 06:12:00;;;;;;;22.97;14.23;;;3.40;99.90;;;;;;4998556;28;20406;-59
2022/03/21 06:14:26;;;;;;;23.77;15.40;;;3.60;99.90;;;;;;5012139;28;20515;-59
2022/03/21 06:16:51;;;;;;;20.97;13.80;;;3.70;99.90;;;;;;5008316;28;20543;-59
2022/03/21 06:19:18;;;;;;;23.00;13.47;;;3.90;99.90;;;;;;4993535;28;20112;-60
2022/03/21 06:21:43;;;;;;;18.08;12.57;;;4.20;99.90;;;;;;5009131;28;20447;-60
2022/03/21 06:24:12;;;;;;;20.43;12.47;;;4.40;99.90;;;;;;5007786;28;20050;-59
2022/03/21 06:26:42;;;;;;;15.95;11.70;;;4.60;99.90;;;;;;5007471;28;20406;-60
2022/03/21 06:29:08;;;;;;;14.75;11.05;;;4.90;99.90;;;;;;5005306;28;20050;-60
2022/03/21 06:31:34;;;;;;;13.05;10.73;;;5.10;99.90;;;;;;5003898;28;20092;-59
2022/03/21 06:33:59;;;;;;;16.10;11.13;;;5.30;99.90;;;;;;5006671;28;20034;-59
2022/03/21 06:36:25;;;;;;;18.40;12.80;;;5.60;99.90;;;;;;5010485;28;20406;-59
2022/03/21 06:38:51;;;;;;;19.17;13.43;;;5.90;99.90;;;;;;5011030;28;20046;-58
2022/03/21 06:41:17;;;;;;;20.50;13.65;;;6.20;99.90;;;;;;5007515;28;20070;-59
2022/03/21 06:43:43;;;;;;;12.70;9.77;;;6.60;99.90;;;;;;5005884;28;20077;-60
2022/03/21 06:46:08;;;;;;;14.60;10.57;;;6.70;99.90;;;;;;5001683;28;20385;-59
2022/03/21 06:48:34;;;;;;;13.87;11.47;;;6.70;99.90;;;;;;5007244;28;20068;-59
2022/03/21 06:51:00;;;;;;;20.33;13.23;;;6.70;99.90;;;;;;5007103;28;20500;-60
2022/03/21 06:53:25;;;;;;;17.40;11.80;;;6.70;99.90;;;;;;4994177;28;20041;-59
2022/03/21 06:55:51;;;;;;;16.87;12.90;;;6.70;99.90;;;;;;4994204;28;20121;-58
2022/03/21 06:58:17;;;;;;;15.10;11.13;;;6.60;99.90;;;;;;5005824;28;20513;-60
2022/03/21 07:00:45;;;;;;;18.52;11.82;;;6.80;99.90;;;;;;5008619;28;20039;-59
2022/03/21 07:03:14;;;;;;;19.05;13.82;;;6.90;99.90;;;;;;4993664;28;20041;-59
2022/03/21 07:05:40;;;;;;;21.92;13.93;;;6.90;99.90;;;;;;4993970;28;20411;-60
2022/03/21 07:08:06;;;;;;;25.63;15.13;;;6.90;99.90;;;;;;4993033;28;20117;-59
2022/03/21 07:10:32;;;;;;;21.43;15.10;;;6.90;99.90;;;;;;4998336;28;20512;-59
2022/03/21 07:13:04;;;;;;;18.88;13.45;;;6.90;99.90;;;;;;5004181;28;20117;-58
2022/03/21 07:15:30;;;;;;;18.83;12.73;;;6.90;99.90;;;;;;5010429;28;20113;-60
2022/03/21 07:17:56;;;;;;;16.98;11.40;;;6.90;99.90;;;;;;5000021;28;20042;-60
2022/03/21 07:20:22;;;;;;;62.73;15.20;;;7.00;99.90;;;;;;4992720;28;20107;-59
2022/03/21 07:22:48;;;;;;;;;;;7.10;99.90;;;;;;4996357;28;20670;-60
2022/03/21 07:25:13;;;;;;;19.65;14.88;;;7.20;99.90;;;;;;5010155;28;19917;-60
2022/03/21 07:27:44;;;;;;;21.77;16.10;;;7.30;99.90;;;;;;5003886;28;20499;-60
2022/03/21 07:30:12;;;;;;;21.45;16.25;;;7.40;99.90;;;;;;5007270;28;20078;-60
2022/03/21 07:32:38;;;;;;;22.35;16.77;;;7.40;99.90;;;;;;5000704;28;20657;-60
2022/03/21 07:35:04;;;;;;;22.20;16.20;;;7.60;99.90;;;;;;4997819;28;20037;-60
2022/03/21 07:37:38;;;;;;;26.77;18.40;;;7.70;99.90;;;;;;4994473;28;20073;-60
2022/03/21 07:40:04;;;;;;;29.40;17.30;;;7.80;99.90;;;;;;5010654;28;20642;-60
2022/03/21 07:42:31;;;;;;;31.30;16.77;;;7.90;99.90;;;;;;5010160;28;20056;-60
2022/03/21 07:47:41;;;;;;;28.75;16.05;;;8.20;99.90;;;;;;5010394;28;20041;-58
2022/03/21 07:50:08;;;;;;;25.88;16.58;;;8.30;99.90;;;;;;5000922;28;20042;-60
2022/03/21 07:52:33;;;;;;;24.95;16.92;;;8.50;99.90;;;;;;4992501;28;20121;-60
2022/03/21 07:54:59;;;;;;;29.63;17.63;;;8.60;99.90;;;;;;4991676;28;20038;-61
2022/03/21 07:57:27;;;;;;;44.13;18.10;;;8.80;99.90;;;;;;4990382;28;20038;-61
2022/03/21 07:59:53;;;;;;;40.58;16.98;;;8.90;99.90;;;;;;5004478;28;20105;-62
2022/03/21 08:02:20;;;;;;;35.03;16.67;;;9.00;99.90;;;;;;5002047;28;20038;-61
2022/03/21 08:04:48;;;;;;;39.25;17.88;;;9.20;99.90;;;;;;5007336;28;20120;-61
2022/03/21 08:07:17;;;;;;;36.55;17.80;;;9.40;99.90;;;;;;5002536;28;20042;-61
2022/03/21 08:09:42;;;;;;;37.38;17.30;;;9.50;99.90;;;;;;4999462;28;20558;-61
2022/03/21 08:12:09;;;;;;;30.60;15.73;;;9.60;99.90;;;;;;5002920;28;20145;-61
2022/03/21 08:14:36;;;;;;;24.88;15.75;;;9.70;99.90;;;;;;5009261;28;20133;-60
2022/03/21 08:17:05;;;;;;;20.02;15.13;;;9.90;99.90;;;;;;5008375;28;20037;-61
2022/03/21 08:19:31;;;;;;;25.08;16.08;;;10.00;99.90;;;;;;4996119;28;20031;-62
2022/03/21 08:21:56;;;;;;;25.05;14.85;;;10.10;99.90;;;;;;5001845;28;20030;-61
2022/03/21 08:24:22;;;;;;;24.00;16.07;;;10.10;99.90;;;;;;5006822;28;20439;-60
2022/03/21 08:26:49;;;;;;;28.83;14.55;;;10.20;99.90;;;;;;4998084;28;20053;-60
2022/03/21 08:29:15;;;;;;;21.10;14.75;;;10.30;99.90;;;;;;4996837;28;20042;-60
2022/03/21 08:31:41;;;;;;;25.88;14.57;;;10.40;99.90;;;;;;4997800;28;20045;-60
2022/03/21 08:34:07;;;;;;;;;;;10.50;99.90;;;;;;5005442;28;20496;-60
2022/03/21 08:36:32;;;;;;;23.58;13.88;;;10.60;99.90;;;;;;5009046;28;19961;-58
2022/03/21 08:38:59;;;;;;;25.17;13.40;;;10.70;99.90;;;;;;5008572;28;20138;-58
2022/03/21 08:41:25;;;;;;;20.65;14.20;;;10.70;99.90;;;;;;5011009;28;20308;-58
2022/03/21 08:43:50;;;;;;;18.73;12.18;;;10.90;99.90;;;;;;5009116;28;20034;-58
2022/03/21 08:46:16;;;;;;;23.10;13.48;;;11.00;99.90;;;;;;5010515;28;20049;-58
2022/03/21 08:51:26;;;;;;;19.02;13.75;;;11.10;99.90;;;;;;4991699;28;20062;-58
2022/03/21 08:53:52;;;;;;;17.83;12.67;;;11.10;99.90;;;;;;4987725;28;20050;-57
2022/03/21 08:56:18;;;;;;;18.73;14.00;;;11.10;99.90;;;;;;4996504;28;20073;-59
2022/03/21 08:58:43;;;;;;;24.33;12.73;;;11.20;99.90;;;;;;5001505;28;20473;-58
2022/03/21 09:01:09;;;;;;;15.23;11.33;;;11.30;99.90;;;;;;5001744;28;20038;-58
2022/03/21 09:03:34;;;;;;;18.70;13.07;;;11.40;99.90;;;;;;5002710;28;20135;-59
2022/03/21 09:06:00;;;;;;;14.83;11.10;;;11.50;99.90;;;;;;5002679;28;20650;-57
2022/03/21 09:08:26;;;;;;;22.97;13.70;;;11.60;99.60;;;;;;5002570;28;20037;-57
2022/03/21 09:10:52;;;;;;;21.85;11.13;;;11.70;99.00;;;;;;5002989;28;20064;-58
2022/03/21 09:13:18;;;;;;;18.70;12.18;;;11.80;99.40;;;;;;5005223;28;20399;-57
2022/03/21 09:15:44;;;;;;;17.50;12.82;;;11.90;98.90;;;;;;5000950;28;20092;-58
2022/03/21 09:18:09;;;;;;;22.95;12.65;;;11.90;98.60;;;;;;5003192;28;20030;-59
2022/03/21 09:20:35;;;;;;;18.33;12.38;;;12.00;98.20;;;;;;4997405;28;20081;-57
2022/03/21 09:23:01;;;;;;;20.00;12.98;;;12.00;97.40;;;;;;5001593;28;20458;-59
2022/03/21 09:25:26;;;;;;;20.57;13.73;;;12.00;97.30;;;;;;5001343;28;20273;-58
2022/03/21 09:27:52;;;;;;;25.53;14.67;;;12.10;97.70;;;;;;5001158;28;21049;-58
2022/03/21 09:30:17;;;;;;;23.30;13.93;;;12.10;97.90;;;;;;5002951;28;20038;-59
2022/03/21 09:32:43;;;;;;;25.45;16.05;;;12.20;97.90;;;;;;5003254;28;20056;-59
2022/03/21 09:35:09;;;;;;;25.03;15.70;;;12.20;97.80;;;;;;5003677;28;20069;-58
2022/03/21 09:37:35;;;;;;;28.05;14.20;;;12.30;97.40;;;;;;5001203;28;20403;-58
2022/03/21 09:40:01;;;;;;;20.30;14.80;;;12.40;97.50;;;;;;5001918;28;20831;-59
2022/03/21 09:42:26;;;;;;;22.63;17.90;;;12.50;97.70;;;;;;5002966;28;20042;-59
2022/03/21 09:44:55;;;;;;;27.92;16.92;;;12.60;97.50;;;;;;5000148;28;20038;-58
2022/03/21 09:50:11;;;;;;;27.88;17.98;;;12.80;96.80;;;;;;5006916;28;20042;-57
2022/03/21 09:52:38;;;;;;;25.83;17.67;;;12.90;96.60;;;;;;5005485;28;20061;-59
2022/03/21 09:55:07;;;;;;;32.33;18.65;;;13.00;96.60;;;;;;5007057;28;20440;-58
2022/03/21 09:57:36;;;;;;;28.27;17.33;;;13.10;96.20;;;;;;5005000;28;20061;-58
2022/03/21 10:00:07;;;;;;;29.92;18.90;;;13.30;95.80;;;;;;5008075;28;20407;-58
2022/03/21 10:02:34;;;;;;;31.65;19.30;;;13.40;95.40;;;;;;5003151;28;20045;-58
2022/03/21 10:05:00;;;;;;;24.40;17.42;;;13.40;95.00;;;;;;5006230;28;20037;-59
2022/03/21 10:07:26;;;;;;;;;;;13.30;94.00;;;;;;5002374;28;20042;-59
2022/03/21 10:10:09;;;;;;;30.25;19.30;;;13.40;94.20;;;;;;5008458;28;20000;-59
2022/03/21 10:12:36;;;;;;;27.67;18.60;;;13.40;94.20;;;;;;5004411;28;20499;-58
2022/03/21 10:15:06;;;;;;;29.77;17.83;;;13.50;94.40;;;;;;5007439;28;20116;-59
2022/03/21 10:17:32;;;;;;;26.63;18.50;;;13.60;94.20;;;;;;5005577;28;20334;-58
2022/03/21 10:19:58;;;;;;;27.60;19.88;;;13.70;94.40;;;;;;5004322;28;20113;-59
2022/03/21 10:22:32;;;;;;;30.60;18.90;;;13.80;93.30;;;;;;5004747;28;20061;-57
2022/03/21 10:25:06;;;;;;;37.53;21.27;;;13.90;91.80;;;;;;5005614;28;20104;-60
2022/03/21 10:27:33;;;;;;;32.00;20.02;;;14.00;91.30;;;;;;5005638;28;20034;-58
2022/03/21 10:30:06;;;;;;;30.13;18.80;;;14.00;90.90;;;;;;5000851;28;20129;-59
2022/03/21 10:32:42;;;;;;;31.27;20.58;;;14.10;90.80;;;;;;5003507;28;20029;-59
2022/03/21 10:35:15;;;;;;;30.55;19.33;;;14.10;90.00;;;;;;5004601;28;20432;-59
2022/03/21 10:37:44;;;;;;;32.33;19.67;;;14.20;90.20;;;;;;5002658;28;20054;-59
2022/03/21 10:40:30;;;;;;;31.45;20.40;;;14.20;90.40;;;;;;5004127;28;20181;-59
2022/03/21 10:43:03;;;;;;;29.20;19.42;;;14.30;90.90;;;;;;5007027;28;20416;-59
2022/03/21 10:45:38;;;;;;;33.75;20.15;;;14.40;90.20;;;;;;5002176;28;20038;-59
2022/03/21 10:48:21;;;;;;;30.92;19.98;;;14.40;90.50;;;;;;5001170;28;20037;-59
2022/03/21 10:50:50;;;;;;;27.92;19.02;;;14.50;90.60;;;;;;5002964;28;20415;-58
2022/03/21 10:53:16;;;;;;;31.73;18.95;;;14.50;90.10;;;;;;5004806;28;20049;-58
2022/03/21 10:55:47;;;;;;;30.00;19.60;;;14.50;88.90;;;;;;5007376;28;20042;-59
2022/03/21 10:58:15;;;;;;;31.45;19.38;;;14.60;89.60;;;;;;5005603;28;20280;-58
2022/03/21 11:00:41;;;;;;;33.33;20.58;;;14.60;88.80;;;;;;5005302;28;20039;-59
2022/03/21 11:03:09;;;;;;;30.10;19.20;;;14.70;89.10;;;;;;5007178;28;20041;-60
2022/03/21 11:05:40;;;;;;;26.17;18.55;;;14.80;88.30;;;;;;5003741;28;20483;-59
2022/03/21 11:08:08;;;;;;;26.63;19.52;;;15.00;87.30;;;;;;5003188;28;20127;-58
2022/03/21 11:10:34;;;;;;;29.27;19.58;;;15.10;85.70;;;;;;5000909;28;20497;-58
2022/03/21 11:13:03;;;;;;;;;;;15.10;86.20;;;;;;5007115;28;20057;-60
2022/03/21 11:15:30;;;;;;;32.10;19.40;;;15.20;85.90;;;;;;5003831;28;20434;-59
2022/03/21 11:17:57;;;;;;;28.48;19.27;;;15.30;87.30;;;;;;5002712;28;20038;-60
2022/03/21 11:20:24;;;;;;;24.15;19.13;;;15.20;85.30;;;;;;5003366;28;20037;-58
2022/03/21 11:22:52;;;;;;;29.65;20.48;;;15.20;84.00;;;;;;4999873;28;20042;-59
2022/03/21 11:25:18;;;;;;;27.55;19.52;;;15.20;84.30;;;;;;5003457;28;20034;-59
2022/03/21 11:28:02;;;;;;;27.05;19.95;;;15.30;83.40;;;;;;5005364;28;20038;-59
2022/03/21 11:30:55;;;;;;;32.05;19.50;;;15.30;83.20;;;;;;5003210;28;20511;-59
2022/03/21 11:33:47;;;;;;;30.67;19.63;;;15.30;82.40;;;;;;5005358;28;20132;-58
2022/03/21 11:36:13;;;;;;;32.45;20.95;;;15.40;81.50;;;;;;4999878;28;20057;-60
2022/03/21 11:38:45;;;;;;;35.75;20.25;;;15.60;83.00;;;;;;5002276;28;20634;-59
2022/03/21 11:41:24;;;;;;;31.83;20.60;;;15.60;83.60;;;;;;5005022;28;20084;-59
2022/03/21 11:44:08;;;;;;;28.92;20.65;;;15.70;82.70;;;;;;5005351;28;20449;-58
2022/03/21 11:46:35;;;;;;;30.98;20.88;;;15.60;79.80;;;;;;5005556;28;20061;-60
2022/03/21 11:49:25;;;;;;;33.88;19.95;;;15.60;81.80;;;;;;5004163;28;20038;-58
2022/03/21 11:51:58;;;;;;;29.02;19.63;;;15.50;79.80;;;;;;5005203;28;20423;-60
2022/03/21 11:54:33;;;;;;;27.88;19.92;;;15.60;81.60;;;;;;5003300;28;20046;-59
2022/03/21 11:57:04;;;;;;;30.67;19.45;;;15.80;81.90;;;;;;5006189;28;20038;-60
2022/03/21 11:59:32;;;;;;;29.75;19.38;;;16.00;81.50;;;;;;5004074;28;20034;-59
2022/03/21 12:02:10;;;;;;;29.10;19.77;;;16.10;80.60;;;;;;5005469;28;20037;-60
2022/03/21 12:04:37;;;;;;;28.13;19.85;;;16.00;77.40;;;;;;5005530;28;20184;-59
2022/03/21 12:07:12;;;;;;;33.20;21.02;;;16.10;79.10;;;;;;5004899;28;20057;-59
2022/03/21 12:09:44;;;;;;;26.00;18.67;;;16.10;77.20;;;;;;5004361;28;20046;-59
2022/03/21 12:12:11;;;;;;;27.60;18.23;;;16.10;76.50;;;;;;5000615;28;20152;-58
2022/03/21 12:14:46;;;;;;;28.85;20.48;;;16.10;77.20;;;;;;5002899;28;20593;-59
2022/03/21 12:17:11;;;;;;;30.08;18.13;;;16.10;76.30;;;;;;4997582;28;20034;-59
2022/03/21 12:19:57;;;;;;;25.90;18.57;;;16.20;76.40;;;;;;5003155;28;20226;-59
2022/03/21 12:22:28;;;;;;;25.45;17.83;;;16.20;76.20;;;;;;5001369;28;20698;-59
2022/03/21 12:24:58;;;;;;;28.20;18.70;;;16.30;77.70;;;;;;5002330;28;20404;-58
2022/03/21 12:27:33;;;;;;;27.13;19.10;;;16.30;76.00;;;;;;5000449;28;20041;-59
2022/03/21 12:30:20;;;;;;;31.83;21.48;;;16.30;74.50;;;;;;5001637;28;20118;-59
2022/03/21 12:33:22;;;;;;;30.75;18.92;;;16.30;74.70;;;;;;5003842;28;20100;-59
2022/03/21 12:35:51;;;;;;;25.77;20.80;;;16.50;75.30;;;;;;5001072;28;20045;-59
2022/03/21 12:38:34;;;;;;;31.73;21.00;;;16.60;75.50;;;;;;5005803;28;20510;-59
2022/03/21 12:41:03;;;;;;;29.27;18.60;;;16.70;75.30;;;;;;4997957;28;20038;-59
2022/03/21 12:43:45;;;;;;;24.67;19.63;;;16.70;74.70;;;;;;5002960;28;20046;-58
2022/03/21 12:46:18;;;;;;;28.92;20.70;;;16.80;72.20;;;;;;4999036;28;20460;-60
2022/03/21 12:49:00;;;;;;;30.35;21.23;;;16.80;73.70;;;;;;5002010;28;20133;-59
2022/03/21 12:51:25;;;;;;;25.42;20.15;;;16.70;73.30;;;;;;5002289;28;20125;-59
2022/03/21 12:53:51;;;;;;;29.90;21.03;;;16.80;73.90;;;;;;5002014;28;20145;-58
2022/03/21 12:56:19;;;;;;;34.33;21.75;;;16.70;73.10;;;;;;5003400;28;20707;-59
2022/03/21 12:58:46;;;;;;;28.15;19.63;;;16.70;72.90;;;;;;5001511;28;20041;-59
2022/03/21 13:10:33;;;;;;;32.28;23.95;;;17.00;74.30;;;;;;5003356;28;20075;-58
2022/03/21 13:13:04;;;;;;;28.40;21.98;;;17.00;74.10;;;;;;5002812;28;20495;-60
2022/03/21 13:15:33;;;;;;;31.83;22.95;;;17.00;72.60;;;;;;5003469;28;20088;-59
2022/03/21 13:18:03;;;;;;;29.98;22.10;;;17.00;73.30;;;;;;5002134;28;20410;-59